createdAt,value
2023-03-29T00:04:53.864Z,100596.19
2023-03-29T00:09:57.017Z,100609.19
2023-03-29T00:15:00.109Z,100600.00
2023-03-29T00:20:06.580Z,100615.94
2023-03-29T00:25:13.252Z,100625.09
2023-03-29T00:30:16.892Z,100623.31
2023-03-29T00:35:20.214Z,100618.03
2023-03-29T00:40:23.801Z,100617.19
2023-03-29T00:45:30.813Z,100618.28
2023-03-29T00:50:39.860Z,100615.63
2023-03-29T00:56:12.191Z,100620.22
2023-03-29T01:01:19.844Z,100607.91
2023-03-29T01:06:29.600Z,100613.28
2023-03-29T01:11:40.330Z,100623.44
2023-03-29T01:16:43.538Z,100601.91
2023-03-29T01:21:53.250Z,100607.44
2023-03-29T01:27:02.373Z,100604.00
2023-03-29T01:32:23.680Z,100594.31
2023-03-29T01:37:42.824Z,100591.22
2023-03-29T01:42:50.040Z,100605.34
2023-03-29T01:48:09.136Z,100603.94
2023-03-29T01:53:24.605Z,100611.84
2023-03-29T01:58:34.159Z,100611.72
2023-03-29T02:03:42.671Z,100594.66
2023-03-29T02:08:46.985Z,100609.28
2023-03-29T02:13:50.036Z,100591.84
2023-03-29T02:18:56.644Z,100597.09
2023-03-29T02:24:03.681Z,100600.78
2023-03-29T02:29:06.798Z,100597.47
2023-03-29T02:34:27.116Z,100589.13
2023-03-29T02:39:34.020Z,100596.38
2023-03-29T02:44:41.790Z,100607.25
2023-03-29T02:49:45.974Z,100597.88
2023-03-29T02:54:51.624Z,100585.44
2023-03-29T02:59:57.298Z,100578.78
2023-03-29T03:05:00.356Z,100556.53
2023-03-29T03:10:04.303Z,100591.66
2023-03-29T03:15:08.171Z,100571.09
2023-03-29T03:20:15.392Z,100595.09
2023-03-29T03:25:49.683Z,100586.13
2023-03-29T03:31:10.558Z,100576.31
2023-03-29T03:36:31.904Z,100589.72
2023-03-29T03:41:42.098Z,100571.81
2023-03-29T03:46:45.201Z,100579.09
2023-03-29T03:51:49.379Z,100556.72
2023-03-29T03:56:54.559Z,100550.31
2023-03-29T04:02:12.657Z,100553.56
2023-03-29T04:07:18.156Z,100559.59
2023-03-29T04:12:33.274Z,100537.97
2023-03-29T04:17:37.232Z,100540.09
2023-03-29T04:23:03.579Z,100556.09
2023-03-29T04:28:07.290Z,100547.00
2023-03-29T04:33:29.616Z,100537.97
2023-03-29T04:38:36.432Z,100530.00
2023-03-29T04:43:41.649Z,100530.56
2023-03-29T04:48:53.132Z,100548.59
2023-03-29T04:54:06.864Z,100577.94
2023-03-29T04:59:33.037Z,100552.09
2023-03-29T05:04:38.614Z,100554.81
2023-03-29T05:09:48.909Z,100557.31
2023-03-29T05:14:52.004Z,100548.47
2023-03-29T05:19:56.756Z,100551.88
2023-03-29T05:25:01.937Z,100532.31
2023-03-29T05:30:06.817Z,100552.03
2023-03-29T05:35:19.315Z,100546.66
2023-03-29T05:40:22.685Z,100543.16
2023-03-29T05:45:49.003Z,100544.09
2023-03-29T05:50:54.092Z,100541.41
2023-03-29T05:55:57.538Z,100532.78
2023-03-29T06:01:04.975Z,100543.00
2023-03-29T06:06:25.946Z,100529.84
2023-03-29T06:11:29.150Z,100535.38
2023-03-29T06:16:50.578Z,100510.78
2023-03-29T06:21:54.709Z,100537.50
2023-03-29T06:27:01.757Z,100519.91
2023-03-29T06:32:07.405Z,100524.91
2023-03-29T06:37:32.297Z,100509.06
2023-03-29T06:42:46.825Z,100521.09
2023-03-29T06:48:25.175Z,100514.19
2023-03-29T06:53:28.592Z,100526.22
2023-03-29T06:58:38.096Z,100515.06
2023-03-29T07:04:05.135Z,100514.41
2023-03-29T07:09:19.442Z,100508.22
2023-03-29T07:14:54.768Z,100516.25
2023-03-29T07:20:01.450Z,100525.97
2023-03-29T07:25:24.157Z,100514.53
2023-03-29T07:30:32.416Z,100508.91
2023-03-29T07:35:49.726Z,100499.56
2023-03-29T07:40:54.697Z,100497.50
2023-03-29T07:46:22.350Z,100498.88
2023-03-29T07:51:28.127Z,100497.75
2023-03-29T07:56:43.111Z,100453.72
2023-03-29T08:02:01.607Z,100488.09
2023-03-29T08:07:12.895Z,100448.78
2023-03-29T08:12:47.513Z,100487.47
2023-03-29T08:17:52.760Z,100474.59
2023-03-29T08:22:57.944Z,100474.78
2023-03-29T08:28:12.782Z,100455.66
2023-03-29T08:33:24.477Z,100454.34
2023-03-29T08:38:37.992Z,100432.34
2023-03-29T08:44:03.445Z,100452.44
2023-03-29T08:49:44.333Z,100415.69
2023-03-29T08:54:53.461Z,100436.31
2023-03-29T09:00:10.906Z,100400.31
2023-03-29T09:05:31.561Z,100422.84
2023-03-29T09:11:17.779Z,100424.06
2023-03-29T09:16:39.484Z,100411.06
2023-03-29T09:21:56.892Z,100421.09
2023-03-29T09:27:28.386Z,100403.50
2023-03-29T09:32:57.821Z,100412.59
2023-03-29T09:38:15.360Z,100381.16
2023-03-29T09:43:31.135Z,100401.53
2023-03-29T09:48:41.789Z,100380.69
2023-03-29T09:53:45.225Z,100388.00
2023-03-29T09:59:12.661Z,100370.91
2023-03-29T10:04:17.209Z,100389.91
2023-03-29T10:09:29.804Z,100399.13
2023-03-29T10:14:53.983Z,100388.63
2023-03-29T10:20:09.666Z,100404.81
2023-03-29T10:25:15.193Z,100398.91
2023-03-29T10:30:23.476Z,100390.88
2023-03-29T10:35:42.035Z,100388.00
2023-03-29T10:40:47.618Z,100402.59
2023-03-29T10:45:54.178Z,100396.31
2023-03-29T10:51:06.286Z,100378.09
2023-03-29T10:56:24.755Z,100395.44
2023-03-29T11:01:34.912Z,100372.72
2023-03-29T11:06:53.137Z,100380.31
2023-03-29T11:12:15.698Z,100374.19
2023-03-29T11:17:46.281Z,100356.63
2023-03-29T11:23:21.175Z,100362.34
2023-03-29T11:28:40.364Z,100376.59
2023-03-29T11:34:19.990Z,100370.47
2023-03-29T11:39:23.963Z,100375.72
2023-03-29T11:44:36.347Z,100376.16
2023-03-29T11:50:06.939Z,100375.41
2023-03-29T11:55:18.775Z,100358.69
2023-03-29T12:00:33.674Z,100372.72
2023-03-29T12:05:57.564Z,100370.19
2023-03-29T12:11:21.177Z,100344.25
2023-03-29T12:16:48.490Z,100362.00
2023-03-29T12:21:54.531Z,100349.38
2023-03-29T12:27:20.989Z,100351.06
2023-03-29T12:32:32.778Z,100332.84
2023-03-29T12:38:17.104Z,100335.19
2023-03-29T12:43:43.766Z,100323.88
2023-03-29T12:49:28.579Z,100336.91
2023-03-29T12:54:33.350Z,100321.47
2023-03-29T12:59:50.008Z,100307.81
2023-03-29T13:04:55.933Z,100307.88
2023-03-29T13:10:08.516Z,100327.59
2023-03-29T13:15:17.922Z,100330.50
2023-03-29T13:20:37.747Z,100336.00
2023-03-29T13:26:04.242Z,100338.66
2023-03-29T13:31:25.985Z,100344.31
2023-03-29T13:36:46.555Z,100345.47
2023-03-29T13:41:53.506Z,100342.66
2023-03-29T13:47:16.796Z,100350.59
2023-03-29T13:52:39.922Z,100358.56
2023-03-29T13:57:52.935Z,100339.94
2023-03-29T14:03:01.811Z,100348.66
2023-03-29T14:08:13.919Z,100358.56
2023-03-29T14:13:22.867Z,100370.16
2023-03-29T14:18:29.128Z,100366.59
2023-03-29T14:23:34.300Z,100369.06
2023-03-29T14:28:43.863Z,100356.56
2023-03-29T14:33:52.856Z,100372.72
2023-03-29T14:39:06.203Z,100371.22
2023-03-29T14:44:09.613Z,100374.44
2023-03-29T14:49:17.491Z,100393.84
2023-03-29T14:54:29.053Z,100390.22
2023-03-29T14:59:35.039Z,100400.28
2023-03-29T15:04:39.316Z,100401.91
2023-03-29T15:09:45.696Z,100403.13
2023-03-29T15:14:52.046Z,100391.53
2023-03-29T15:20:00.333Z,100393.84
2023-03-29T15:25:04.055Z,100395.06
2023-03-29T15:30:17.066Z,100394.84
2023-03-29T15:35:25.179Z,100394.28
2023-03-29T15:40:28.473Z,100366.03
2023-03-29T15:45:31.480Z,100376.66
2023-03-29T15:50:34.530Z,100361.44
2023-03-29T15:55:42.040Z,100381.84
2023-03-29T16:00:51.728Z,100381.09
2023-03-29T16:05:57.108Z,100391.63
2023-03-29T16:11:00.215Z,100384.97
2023-03-29T16:16:03.709Z,100389.44
2023-03-29T16:21:08.023Z,100397.06
2023-03-29T16:26:16.897Z,100361.34
2023-03-29T16:31:20.763Z,100387.56
2023-03-29T16:36:23.930Z,100390.50
2023-03-29T16:41:27.436Z,100402.22
2023-03-29T16:46:31.146Z,100424.25
2023-03-29T16:51:34.242Z,100426.66
2023-03-29T16:56:37.366Z,100435.38
2023-03-29T17:01:40.973Z,100415.19
2023-03-29T17:06:44.185Z,100428.97
2023-03-29T17:11:47.136Z,100425.19
2023-03-29T17:16:50.237Z,100427.31
2023-03-29T17:21:53.285Z,100388.53
2023-03-29T17:26:57.570Z,100400.16
2023-03-29T17:32:00.722Z,100381.06
2023-03-29T17:37:04.045Z,100377.56
2023-03-29T17:42:10.130Z,100369.69
2023-03-29T17:47:13.212Z,100375.50
2023-03-29T17:52:16.258Z,100366.47
2023-03-29T17:57:19.287Z,100384.84
2023-03-29T18:02:24.315Z,100378.75
2023-03-29T18:07:28.349Z,100355.81
2023-03-29T18:12:31.397Z,100369.78
2023-03-29T18:17:36.135Z,100340.13
2023-03-29T18:22:41.607Z,100340.19
2023-03-29T18:27:44.647Z,100327.19
2023-03-29T18:32:47.690Z,100313.94
2023-03-29T18:37:51.844Z,100325.22
2023-03-29T18:42:54.853Z,100331.81
2023-03-29T18:47:58.033Z,100331.22
2023-03-29T18:53:01.829Z,100332.84
2023-03-29T18:58:04.927Z,100339.38
2023-03-29T19:03:08.871Z,100336.63
2023-03-29T19:08:12.123Z,100302.75
2023-03-29T19:13:15.294Z,100304.31
2023-03-29T19:18:18.407Z,100309.19
2023-03-29T19:23:23.094Z,100289.22
2023-03-29T19:28:27.643Z,100307.19
2023-03-29T19:33:30.906Z,100317.78
2023-03-29T19:38:33.919Z,100301.84
2023-03-29T19:43:36.954Z,100308.47
2023-03-29T19:48:40.466Z,100293.56
2023-03-29T19:53:43.735Z,100291.69
2023-03-29T19:58:48.513Z,100303.78
2023-03-29T20:03:51.688Z,100300.25
2023-03-29T20:08:55.173Z,100280.44
2023-03-29T20:13:58.200Z,100298.41
2023-03-29T20:19:02.343Z,100277.16
2023-03-29T20:24:06.412Z,100256.28
2023-03-29T20:29:09.456Z,100291.63
2023-03-29T20:34:12.756Z,100284.72
2023-03-29T20:39:19.092Z,100297.13
2023-03-29T20:44:28.609Z,100303.94
2023-03-29T20:49:39.029Z,100294.75
2023-03-29T20:54:43.458Z,100287.72
2023-03-29T20:59:48.429Z,100281.16
2023-03-29T21:04:52.805Z,100284.66
2023-03-29T21:09:55.878Z,100289.09
2023-03-29T21:14:58.842Z,100264.53
2023-03-29T21:20:02.882Z,100281.38
2023-03-29T21:25:08.482Z,100270.91
2023-03-29T21:30:11.973Z,100261.03
2023-03-29T21:35:15.142Z,100253.94
2023-03-29T21:40:18.170Z,100274.38
2023-03-29T21:45:21.378Z,100286.03
2023-03-29T21:50:24.533Z,100264.16
2023-03-29T21:55:27.811Z,100282.16
2023-03-29T22:00:31.592Z,100245.16
2023-03-29T22:05:35.241Z,100264.31
2023-03-29T22:10:41.662Z,100258.88
2023-03-29T22:15:45.353Z,100251.31
2023-03-29T22:20:48.763Z,100237.47
2023-03-29T22:25:51.760Z,100213.41
2023-03-29T22:30:54.730Z,100211.38
2023-03-29T22:35:57.782Z,100218.25
2023-03-29T22:41:01.810Z,100228.47
2023-03-29T22:46:07.266Z,100220.22
2023-03-29T22:51:10.352Z,100219.56
2023-03-29T22:56:14.635Z,100240.28
2023-03-29T23:01:17.764Z,100215.16
2023-03-29T23:06:20.840Z,100230.44
2023-03-29T23:11:23.904Z,100230.72
2023-03-29T23:16:26.964Z,100226.88
2023-03-29T23:21:30.071Z,100229.06
2023-03-29T23:26:33.823Z,100237.38
2023-03-29T23:31:38.007Z,100237.69
2023-03-29T23:36:41.280Z,100225.72
2023-03-29T23:41:44.439Z,100225.00
2023-03-29T23:46:47.558Z,100229.00
2023-03-29T23:51:50.853Z,100203.22
2023-03-29T23:56:53.923Z,100223.09
